NCAR-RAP Real-Time Weather Data

Output produced by METARs form (08 May 2021  17:00 UTC)
found at http://weather.rap.ucar.edu/surface/
 
KBLI 081653Z 19007KT 10SM CLR 11/04 A3036 RMK AO2 SLP287 T01110039
KBLI 081553Z 18009KT 10SM SCT075 10/06 A3035 RMK AO2 SLP285 T01000061
KBLI 081453Z 19006KT 10SM FEW018 BKN048 OVC075 09/06 A3035 RMK AO2 SLP284 60001 T00890061 53012
KBLI 081353Z AUTO 17003KT 10SM SCT043 BKN049 08/07 A3033 RMK AO2 RAE06 SLP279 P0001 T00830067
KBLI 081253Z AUTO 20003KT 6SM -RA BR BKN040 OVC050 08/06 A3032 RMK AO2 RAE08B32 SLP275 P0000 T00780061
KBLI 081153Z AUTO 19004KT 5SM -RA OVC040 08/06 A3031 RMK AO2 RAB03E12B45 SLP272 P0001 60001 70001 T00830056 10100 20078 53006
KBLI 081053Z AUTO 18004KT 10SM OVC040 09/05 A3031 RMK AO2 SLP270 T00890050
KBLI 080953Z AUTO 16007KT 10SM BKN040 BKN050 08/05 A3030 RMK AO2 SLP268 T00830050
KBLI 080853Z AUTO 17008KT 10SM FEW090 08/05 A3030 RMK AO2 SLP267 60000 T00830050 51004
KBLI 080753Z AUTO 16009KT 10SM BKN060 BKN080 09/05 A3030 RMK AO2 RAE06 SLP266 P0000 T00890050 401280072
KBLI 080653Z AUTO 18004KT 10SM -RA BKN065 OVC090 09/05 A3029 RMK AO2 RAB43 SLP264 P0000 T00940050
KBLI 080553Z AUTO 00000KT 10SM OVC095 10/03 A3029 RMK AO2 SLP262 T01000033 10128 20094 51017
KBLI 080453Z 18006KT 10SM BKN060 BKN095 10/04 A3028 RMK AO2 SLP259 T01000044